EJA210 KOAK-KALW
Flight info
| Callsign | EJA210 |
|---|---|
| Flight time | 1h 15m |
| Altitude | 45000 |
| Route | OAK6 OAK DEDHD LKV/N0492F430 J3 IMB PDT |
| Aircraft | C750/M-SBDE3FGHRWXY/S |
Departure
| Time | 2026-05-03 20:27 |
|---|---|
| Airport | San Francisco Bay Oakland International Airport (KOAK) |
Arrival
| Time | 2026-05-03 21:42 |
|---|---|
| Airport | Walla Walla Regional Airport (KALW) |
| Time | Latitude | Longitude | Altitude | Speed | Heading |
|---|---|---|---|---|---|
| 2026-05-03 20:15 | 37.72929 | -122.21206 | 5 ft | 0 kts | 304° |
| 2026-05-03 20:21 | 37.72931 | -122.21209 | 5 ft | 1 kts | 304° |
| 2026-05-03 20:22 | 37.72936 | -122.21226 | 5 ft | 2 kts | 275° |
| 2026-05-03 20:22 | 37.72925 | -122.21248 | 5 ft | 5 kts | 225° |
| 2026-05-03 20:22 | 37.72874 | -122.21271 | 5 ft | 11 kts | 183° |
| 2026-05-03 20:22 | 37.72829 | -122.21222 | 6 ft | 8 kts | 112° |
| 2026-05-03 20:23 | 37.72814 | -122.21178 | 6 ft | 8 kts | 112° |
| 2026-05-03 20:23 | 37.72794 | -122.21116 | 6 ft | 7 kts | 112° |
| 2026-05-03 20:23 | 37.72775 | -122.21059 | 6 ft | 7 kts | 112° |
| 2026-05-03 20:23 | 37.72756 | -122.21001 | 6 ft | 9 kts | 112° |
| 2026-05-03 20:24 | 37.72731 | -122.20922 | 6 ft | 10 kts | 112° |
| 2026-05-03 20:24 | 37.72707 | -122.20848 | 6 ft | 9 kts | 112° |
| 2026-05-03 20:24 | 37.72684 | -122.20778 | 6 ft | 8 kts | 112° |
| 2026-05-03 20:24 | 37.72663 | -122.20713 | 6 ft | 8 kts | 112° |
| 2026-05-03 20:25 | 37.72639 | -122.20640 | 5 ft | 10 kts | 112° |
| 2026-05-03 20:25 | 37.72610 | -122.20554 | 6 ft | 11 kts | 112° |
| 2026-05-03 20:25 | 37.72578 | -122.20456 | 6 ft | 12 kts | 125° |
| 2026-05-03 20:25 | 37.72512 | -122.20461 | 6 ft | 10 kts | 199° |
| 2026-05-03 20:26 | 37.72491 | -122.20507 | 5 ft | 9 kts | 283° |
| 2026-05-03 20:26 | 37.72633 | -122.20942 | 8 ft | 110 kts | 292° |
| 2026-05-03 20:26 | 37.72999 | -122.22074 | 147 ft | 155 kts | 289° |
| 2026-05-03 20:26 | 37.73457 | -122.23450 | 550 ft | 183 kts | 291° |
| 2026-05-03 20:27 | 37.74070 | -122.24898 | 1361 ft | 180 kts | 297° |
| 2026-05-03 20:27 | 37.74641 | -122.26303 | 1987 ft | 190 kts | 294° |
| 2026-05-03 20:27 | 37.75256 | -122.27983 | 2008 ft | 230 kts | 293° |
| 2026-05-03 20:27 | 37.75930 | -122.29882 | 2010 ft | 237 kts | 291° |
| 2026-05-03 20:28 | 37.76916 | -122.31590 | 2021 ft | 260 kts | 322° |
| 2026-05-03 20:28 | 37.78657 | -122.32159 | 3103 ft | 259 kts | 0° |
| 2026-05-03 20:28 | 37.80436 | -122.31682 | 4129 ft | 267 kts | 18° |
| 2026-05-03 20:28 | 37.82195 | -122.30856 | 5172 ft | 271 kts | 22° |
| 2026-05-03 20:29 | 37.83996 | -122.30034 | 6125 ft | 280 kts | 21° |
| 2026-05-03 20:29 | 37.85892 | -122.29337 | 7056 ft | 287 kts | 18° |
| 2026-05-03 20:29 | 37.87832 | -122.28657 | 8129 ft | 291 kts | 19° |
| 2026-05-03 20:29 | 37.89781 | -122.27920 | 9256 ft | 294 kts | 21° |
| 2026-05-03 20:30 | 37.91757 | -122.27155 | 10197 ft | 301 kts | 21° |
| 2026-05-03 20:30 | 37.93841 | -122.26359 | 10587 ft | 326 kts | 20° |
| 2026-05-03 20:30 | 37.96107 | -122.25506 | 10765 ft | 354 kts | 20° |
| 2026-05-03 20:30 | 37.98502 | -122.24608 | 11241 ft | 367 kts | 19° |
| 2026-05-03 20:31 | 38.00948 | -122.23689 | 12139 ft | 368 kts | 19° |
| 2026-05-03 20:31 | 38.03417 | -122.22751 | 12882 ft | 374 kts | 19° |
| 2026-05-03 20:31 | 38.05931 | -122.21793 | 13637 ft | 378 kts | 19° |
| 2026-05-03 20:31 | 38.08473 | -122.20830 | 14315 ft | 383 kts | 19° |
| 2026-05-03 20:32 | 38.11033 | -122.19862 | 15023 ft | 385 kts | 19° |
| 2026-05-03 20:32 | 38.13611 | -122.18882 | 15729 ft | 388 kts | 19° |
| 2026-05-03 20:32 | 38.16214 | -122.17890 | 16458 ft | 392 kts | 19° |
| 2026-05-03 20:32 | 38.18832 | -122.16895 | 17200 ft | 395 kts | 19° |
| 2026-05-03 20:33 | 38.21477 | -122.15889 | 17978 ft | 398 kts | 19° |
| 2026-05-03 20:33 | 38.24143 | -122.14873 | 18695 ft | 401 kts | 20° |
| 2026-05-03 20:33 | 38.26829 | -122.13849 | 19397 ft | 404 kts | 20° |
| 2026-05-03 20:33 | 38.29535 | -122.12815 | 20136 ft | 407 kts | 20° |
| 2026-05-03 20:34 | 38.32233 | -122.11785 | 20839 ft | 411 kts | 20° |
| 2026-05-03 20:34 | 38.34982 | -122.10739 | 21546 ft | 415 kts | 20° |
| 2026-05-03 20:34 | 38.37810 | -122.09715 | 22272 ft | 418 kts | 19° |
| 2026-05-03 20:34 | 38.40594 | -122.08736 | 22955 ft | 422 kts | 19° |
| 2026-05-03 20:35 | 38.43435 | -122.07708 | 23641 ft | 425 kts | 20° |
| 2026-05-03 20:35 | 38.46282 | -122.06655 | 24263 ft | 427 kts | 20° |
| 2026-05-03 20:35 | 38.49145 | -122.05608 | 24899 ft | 429 kts | 20° |
| 2026-05-03 20:35 | 38.52024 | -122.04569 | 25515 ft | 431 kts | 20° |
| 2026-05-03 20:36 | 38.54916 | -122.03519 | 26107 ft | 433 kts | 20° |
| 2026-05-03 20:36 | 38.57816 | -122.02456 | 26731 ft | 435 kts | 21° |
| 2026-05-03 20:36 | 38.60731 | -122.01387 | 27331 ft | 437 kts | 21° |
| 2026-05-03 20:36 | 38.63671 | -122.00316 | 27954 ft | 440 kts | 21° |
| 2026-05-03 20:37 | 38.66618 | -121.99241 | 28551 ft | 442 kts | 21° |
| 2026-05-03 20:37 | 38.69590 | -121.98151 | 29149 ft | 445 kts | 21° |
| 2026-05-03 20:37 | 38.72575 | -121.97056 | 29713 ft | 448 kts | 21° |
| 2026-05-03 20:37 | 38.75553 | -121.95964 | 30220 ft | 451 kts | 21° |
| 2026-05-03 20:38 | 38.78587 | -121.94851 | 30636 ft | 456 kts | 21° |
| 2026-05-03 20:38 | 38.81647 | -121.93726 | 31104 ft | 458 kts | 21° |
| 2026-05-03 20:38 | 38.84711 | -121.92602 | 31759 ft | 457 kts | 21° |
| 2026-05-03 20:38 | 38.87768 | -121.91478 | 32365 ft | 457 kts | 21° |
| 2026-05-03 20:39 | 38.90825 | -121.90350 | 32969 ft | 457 kts | 21° |
| 2026-05-03 20:39 | 38.93885 | -121.89222 | 33599 ft | 457 kts | 21° |
| 2026-05-03 20:39 | 38.96933 | -121.88098 | 34195 ft | 456 kts | 21° |
| 2026-05-03 20:39 | 38.99998 | -121.86964 | 34669 ft | 458 kts | 20° |
| 2026-05-03 20:40 | 39.03064 | -121.85830 | 35123 ft | 460 kts | 20° |
| 2026-05-03 20:40 | 39.06152 | -121.84688 | 35584 ft | 462 kts | 19° |
| 2026-05-03 20:40 | 39.09252 | -121.83541 | 36038 ft | 464 kts | 19° |
| 2026-05-03 20:40 | 39.12360 | -121.82388 | 36503 ft | 466 kts | 18° |
| 2026-05-03 20:41 | 39.15480 | -121.81231 | 36982 ft | 468 kts | 18° |
| 2026-05-03 20:41 | 39.18617 | -121.80065 | 37459 ft | 470 kts | 18° |
| 2026-05-03 20:41 | 39.21762 | -121.78896 | 37948 ft | 472 kts | 17° |
| 2026-05-03 20:41 | 39.24892 | -121.77732 | 38433 ft | 474 kts | 17° |
| 2026-05-03 20:42 | 39.28074 | -121.76547 | 38849 ft | 476 kts | 16° |
| 2026-05-03 20:42 | 39.31255 | -121.75361 | 39319 ft | 476 kts | 16° |
| 2026-05-03 20:42 | 39.34437 | -121.74174 | 39798 ft | 475 kts | 16° |
| 2026-05-03 20:42 | 39.37611 | -121.72989 | 40265 ft | 475 kts | 16° |
| 2026-05-03 20:43 | 39.40793 | -121.71799 | 40743 ft | 475 kts | 16° |
| 2026-05-03 20:43 | 39.43967 | -121.70611 | 41232 ft | 474 kts | 16° |
| 2026-05-03 20:43 | 39.47136 | -121.69425 | 41708 ft | 474 kts | 16° |
| 2026-05-03 20:43 | 39.50303 | -121.68237 | 42194 ft | 474 kts | 15° |
| 2026-05-03 20:44 | 39.53468 | -121.67049 | 42662 ft | 473 kts | 15° |
| 2026-05-03 20:44 | 39.56626 | -121.65863 | 43121 ft | 473 kts | 15° |
| 2026-05-03 20:44 | 39.59789 | -121.64674 | 43580 ft | 473 kts | 15° |
| 2026-05-03 20:44 | 39.62911 | -121.63499 | 44037 ft | 472 kts | 15° |
| 2026-05-03 20:45 | 39.66069 | -121.62310 | 44487 ft | 472 kts | 15° |
| 2026-05-03 20:45 | 39.69218 | -121.61122 | 44880 ft | 472 kts | 15° |
| 2026-05-03 20:45 | 39.72391 | -121.59925 | 44938 ft | 479 kts | 15° |
| 2026-05-03 20:46 | 39.78909 | -121.57462 | 44963 ft | 495 kts | 15° |
| 2026-05-03 20:46 | 39.85634 | -121.54915 | 44959 ft | 510 kts | 15° |
| 2026-05-03 20:47 | 39.92489 | -121.52314 | 44956 ft | 522 kts | 15° |
| 2026-05-03 20:47 | 39.99526 | -121.49637 | 44942 ft | 530 kts | 15° |
| 2026-05-03 20:48 | 40.06654 | -121.46921 | 44936 ft | 536 kts | 15° |
| 2026-05-03 20:48 | 40.13839 | -121.44176 | 44938 ft | 539 kts | 15° |
| 2026-05-03 20:49 | 40.21040 | -121.41420 | 44935 ft | 539 kts | 15° |
| 2026-05-03 20:49 | 40.28242 | -121.38655 | 44933 ft | 538 kts | 15° |
| 2026-05-03 20:50 | 40.35427 | -121.35894 | 44913 ft | 537 kts | 15° |
| 2026-05-03 20:50 | 40.42592 | -121.33132 | 44912 ft | 536 kts | 15° |
| 2026-05-03 20:51 | 40.49695 | -121.30390 | 44921 ft | 535 kts | 15° |
| 2026-05-03 20:51 | 40.56844 | -121.27621 | 44909 ft | 534 kts | 16° |
| 2026-05-03 20:52 | 40.63965 | -121.24860 | 44908 ft | 533 kts | 16° |
| 2026-05-03 20:52 | 40.71081 | -121.22093 | 44904 ft | 533 kts | 16° |
| 2026-05-03 20:53 | 40.78194 | -121.19321 | 44905 ft | 533 kts | 16° |
| 2026-05-03 20:53 | 40.85305 | -121.16544 | 44901 ft | 532 kts | 16° |
| 2026-05-03 20:54 | 40.92409 | -121.13763 | 44908 ft | 532 kts | 16° |
| 2026-05-03 20:54 | 41.03051 | -121.09586 | 44904 ft | 531 kts | 17° |
| 2026-05-03 20:55 | 41.10097 | -121.06813 | 44888 ft | 531 kts | 17° |
| 2026-05-03 20:55 | 41.17183 | -121.04017 | 44887 ft | 531 kts | 17° |
| 2026-05-03 20:56 | 41.24275 | -121.01213 | 44903 ft | 532 kts | 17° |
| 2026-05-03 20:56 | 41.31373 | -120.98400 | 44907 ft | 532 kts | 17° |
| 2026-05-03 20:57 | 41.38471 | -120.95582 | 44932 ft | 532 kts | 17° |
| 2026-05-03 20:57 | 41.45583 | -120.92749 | 44938 ft | 532 kts | 17° |
| 2026-05-03 20:58 | 41.52640 | -120.89934 | 44946 ft | 532 kts | 17° |
| 2026-05-03 20:58 | 41.59747 | -120.87092 | 44945 ft | 532 kts | 17° |
| 2026-05-03 20:59 | 41.66840 | -120.84248 | 44935 ft | 532 kts | 17° |
| 2026-05-03 20:59 | 41.73883 | -120.81418 | 44922 ft | 531 kts | 17° |
| 2026-05-03 21:00 | 41.78629 | -120.79509 | 44913 ft | 531 kts | 17° |
| 2026-05-03 21:00 | 41.88054 | -120.75705 | 44912 ft | 531 kts | 17° |
| 2026-05-03 21:01 | 41.95150 | -120.72835 | 44944 ft | 531 kts | 17° |
| 2026-05-03 21:01 | 42.02179 | -120.69985 | 44972 ft | 531 kts | 17° |
| 2026-05-03 21:02 | 42.09252 | -120.67110 | 44987 ft | 531 kts | 17° |
| 2026-05-03 21:02 | 42.16331 | -120.64226 | 44992 ft | 531 kts | 17° |
| 2026-05-03 21:03 | 42.23408 | -120.61336 | 45011 ft | 532 kts | 17° |
| 2026-05-03 21:03 | 42.30491 | -120.58437 | 44991 ft | 531 kts | 17° |
| 2026-05-03 21:04 | 42.37571 | -120.55533 | 44991 ft | 531 kts | 17° |
| 2026-05-03 21:04 | 42.44592 | -120.52644 | 44984 ft | 531 kts | 17° |
| 2026-05-03 21:05 | 42.51679 | -120.49848 | 44961 ft | 530 kts | 14° |
| 2026-05-03 21:05 | 42.58819 | -120.47324 | 44953 ft | 529 kts | 14° |
| 2026-05-03 21:06 | 42.65924 | -120.44770 | 44961 ft | 528 kts | 14° |
| 2026-05-03 21:06 | 42.73030 | -120.42236 | 44951 ft | 527 kts | 14° |
| 2026-05-03 21:07 | 42.80128 | -120.39682 | 44945 ft | 527 kts | 15° |
| 2026-05-03 21:07 | 42.87225 | -120.37132 | 44950 ft | 527 kts | 14° |
| 2026-05-03 21:08 | 42.94319 | -120.34572 | 44938 ft | 526 kts | 14° |
| 2026-05-03 21:08 | 43.01357 | -120.32029 | 44917 ft | 526 kts | 14° |
| 2026-05-03 21:09 | 43.08430 | -120.29465 | 44919 ft | 526 kts | 15° |
| 2026-05-03 21:09 | 43.15495 | -120.26899 | 44921 ft | 525 kts | 14° |
| 2026-05-03 21:10 | 43.22556 | -120.24328 | 44928 ft | 524 kts | 14° |
| 2026-05-03 21:10 | 43.29608 | -120.21754 | 44932 ft | 524 kts | 14° |
| 2026-05-03 21:11 | 43.36665 | -120.19173 | 44932 ft | 524 kts | 14° |
| 2026-05-03 21:11 | 43.43703 | -120.16591 | 44936 ft | 524 kts | 14° |
| 2026-05-03 21:12 | 43.49547 | -120.14444 | 44935 ft | 523 kts | 14° |
| 2026-05-03 21:12 | 43.56573 | -120.11855 | 44942 ft | 522 kts | 14° |
| 2026-05-03 21:13 | 43.63595 | -120.09263 | 44942 ft | 521 kts | 14° |
| 2026-05-03 21:13 | 43.70592 | -120.06673 | 44940 ft | 520 kts | 14° |
| 2026-05-03 21:14 | 43.77543 | -120.04094 | 44941 ft | 519 kts | 14° |
| 2026-05-03 21:14 | 43.84523 | -120.01498 | 44951 ft | 519 kts | 14° |
| 2026-05-03 21:15 | 43.91504 | -119.98894 | 44951 ft | 518 kts | 14° |
| 2026-05-03 21:15 | 43.98470 | -119.96292 | 44948 ft | 518 kts | 14° |
| 2026-05-03 21:16 | 44.05383 | -119.93701 | 44941 ft | 517 kts | 14° |
| 2026-05-03 21:16 | 44.12329 | -119.91093 | 44940 ft | 517 kts | 14° |
| 2026-05-03 21:17 | 44.15748 | -119.89806 | 44928 ft | 496 kts | 14° |
| 2026-05-03 21:17 | 44.19022 | -119.88572 | 44399 ft | 482 kts | 14° |
| 2026-05-03 21:17 | 44.22256 | -119.87354 | 43172 ft | 481 kts | 15° |
| 2026-05-03 21:17 | 44.25475 | -119.86140 | 42050 ft | 477 kts | 15° |
| 2026-05-03 21:18 | 44.28669 | -119.84932 | 41010 ft | 473 kts | 15° |
| 2026-05-03 21:18 | 44.31816 | -119.83740 | 40543 ft | 457 kts | 15° |
| 2026-05-03 21:18 | 44.34855 | -119.82589 | 39925 ft | 447 kts | 15° |
| 2026-05-03 21:18 | 44.37788 | -119.81478 | 39348 ft | 438 kts | 15° |
| 2026-05-03 21:19 | 44.40718 | -119.80366 | 38780 ft | 433 kts | 15° |
| 2026-05-03 21:19 | 44.43617 | -119.79263 | 38146 ft | 431 kts | 16° |
| 2026-05-03 21:19 | 44.46515 | -119.78160 | 37586 ft | 434 kts | 16° |
| 2026-05-03 21:19 | 44.49450 | -119.77043 | 37012 ft | 440 kts | 16° |
| 2026-05-03 21:20 | 44.52415 | -119.75913 | 36431 ft | 443 kts | 16° |
| 2026-05-03 21:20 | 44.55390 | -119.74778 | 35843 ft | 444 kts | 16° |
| 2026-05-03 21:20 | 44.58380 | -119.73636 | 35255 ft | 446 kts | 16° |
| 2026-05-03 21:20 | 44.61387 | -119.72486 | 34657 ft | 448 kts | 16° |
| 2026-05-03 21:21 | 44.64392 | -119.71273 | 34049 ft | 449 kts | 19° |
| 2026-05-03 21:21 | 44.67237 | -119.69450 | 33443 ft | 449 kts | 28° |
| 2026-05-03 21:21 | 44.70012 | -119.67411 | 32858 ft | 451 kts | 28° |
| 2026-05-03 21:21 | 44.72811 | -119.65396 | 32257 ft | 453 kts | 28° |
| 2026-05-03 21:22 | 44.75621 | -119.63387 | 31658 ft | 454 kts | 28° |
| 2026-05-03 21:22 | 44.78401 | -119.61374 | 31068 ft | 455 kts | 28° |
| 2026-05-03 21:22 | 44.81218 | -119.59315 | 30460 ft | 457 kts | 28° |
| 2026-05-03 21:22 | 44.84040 | -119.57264 | 29821 ft | 452 kts | 28° |
| 2026-05-03 21:23 | 44.86825 | -119.55250 | 29218 ft | 446 kts | 28° |
| 2026-05-03 21:23 | 44.89576 | -119.53252 | 28634 ft | 443 kts | 29° |
| 2026-05-03 21:23 | 44.92306 | -119.51258 | 28051 ft | 440 kts | 29° |
| 2026-05-03 21:23 | 44.95018 | -119.49277 | 27472 ft | 436 kts | 28° |
| 2026-05-03 21:24 | 44.97706 | -119.47318 | 26903 ft | 433 kts | 28° |
| 2026-05-03 21:24 | 45.00372 | -119.45373 | 26334 ft | 429 kts | 29° |
| 2026-05-03 21:24 | 45.02984 | -119.43462 | 25778 ft | 426 kts | 29° |
| 2026-05-03 21:24 | 45.05601 | -119.41543 | 25225 ft | 423 kts | 29° |
| 2026-05-03 21:25 | 45.08215 | -119.39627 | 24667 ft | 419 kts | 29° |
| 2026-05-03 21:25 | 45.10795 | -119.37736 | 24111 ft | 416 kts | 29° |
| 2026-05-03 21:25 | 45.13353 | -119.35858 | 23563 ft | 413 kts | 29° |
| 2026-05-03 21:25 | 45.15894 | -119.33988 | 22978 ft | 409 kts | 29° |
| 2026-05-03 21:26 | 45.18413 | -119.32134 | 22443 ft | 406 kts | 29° |
| 2026-05-03 21:26 | 45.20916 | -119.30290 | 21913 ft | 405 kts | 29° |
| 2026-05-03 21:26 | 45.23403 | -119.28457 | 21381 ft | 402 kts | 29° |
| 2026-05-03 21:26 | 45.25879 | -119.26629 | 20850 ft | 400 kts | 28° |
| 2026-05-03 21:27 | 45.28338 | -119.24812 | 20330 ft | 398 kts | 28° |
| 2026-05-03 21:27 | 45.30788 | -119.23000 | 19799 ft | 396 kts | 28° |
| 2026-05-03 21:27 | 45.33225 | -119.21195 | 19284 ft | 394 kts | 28° |
| 2026-05-03 21:27 | 45.35645 | -119.19401 | 18766 ft | 392 kts | 27° |
| 2026-05-03 21:28 | 45.38057 | -119.17613 | 18245 ft | 390 kts | 27° |
| 2026-05-03 21:28 | 45.40423 | -119.15856 | 17706 ft | 386 kts | 27° |
| 2026-05-03 21:28 | 45.42790 | -119.14097 | 17198 ft | 382 kts | 27° |
| 2026-05-03 21:28 | 45.45140 | -119.12349 | 16696 ft | 379 kts | 27° |
| 2026-05-03 21:29 | 45.47469 | -119.10615 | 16191 ft | 375 kts | 27° |
| 2026-05-03 21:29 | 45.49772 | -119.08898 | 15694 ft | 372 kts | 27° |
| 2026-05-03 21:29 | 45.52058 | -119.07193 | 15231 ft | 369 kts | 27° |
| 2026-05-03 21:29 | 45.54315 | -119.05508 | 14771 ft | 359 kts | 27° |
| 2026-05-03 21:30 | 45.56497 | -119.03877 | 14300 ft | 350 kts | 27° |
| 2026-05-03 21:30 | 45.58651 | -119.02266 | 13843 ft | 348 kts | 26° |
| 2026-05-03 21:30 | 45.60791 | -119.00664 | 13354 ft | 347 kts | 26° |
| 2026-05-03 21:30 | 45.62923 | -118.99067 | 12896 ft | 345 kts | 26° |
| 2026-05-03 21:31 | 45.65044 | -118.97476 | 12449 ft | 343 kts | 26° |
| 2026-05-03 21:31 | 45.67154 | -118.95892 | 11996 ft | 341 kts | 26° |
| 2026-05-03 21:31 | 45.69216 | -118.94236 | 11520 ft | 339 kts | 32° |
| 2026-05-03 21:31 | 45.70836 | -118.91792 | 11057 ft | 339 kts | 52° |
| 2026-05-03 21:32 | 45.72156 | -118.88978 | 10658 ft | 340 kts | 55° |
| 2026-05-03 21:32 | 45.73434 | -118.86183 | 10217 ft | 338 kts | 55° |
| 2026-05-03 21:32 | 45.74739 | -118.83386 | 9757 ft | 336 kts | 54° |
| 2026-05-03 21:32 | 45.76038 | -118.80633 | 9298 ft | 332 kts | 54° |
| 2026-05-03 21:33 | 45.77315 | -118.77901 | 8861 ft | 319 kts | 54° |
| 2026-05-03 21:33 | 45.78474 | -118.75397 | 8464 ft | 295 kts | 54° |
| 2026-05-03 21:33 | 45.79584 | -118.73010 | 8076 ft | 280 kts | 54° |
| 2026-05-03 21:33 | 45.80650 | -118.70728 | 7708 ft | 270 kts | 54° |
| 2026-05-03 21:34 | 45.81684 | -118.68505 | 7350 ft | 267 kts | 54° |
| 2026-05-03 21:34 | 45.82708 | -118.66299 | 7004 ft | 265 kts | 54° |
| 2026-05-03 21:34 | 45.83714 | -118.64130 | 6657 ft | 263 kts | 55° |
| 2026-05-03 21:34 | 45.84726 | -118.61946 | 6309 ft | 262 kts | 55° |
| 2026-05-03 21:35 | 45.85730 | -118.59780 | 5955 ft | 260 kts | 54° |
| 2026-05-03 21:35 | 45.86724 | -118.57638 | 5576 ft | 257 kts | 55° |
| 2026-05-03 21:35 | 45.87675 | -118.55581 | 5528 ft | 236 kts | 54° |
| 2026-05-03 21:35 | 45.88549 | -118.53688 | 5368 ft | 223 kts | 55° |
| 2026-05-03 21:36 | 45.89414 | -118.51816 | 4944 ft | 225 kts | 55° |
| 2026-05-03 21:36 | 45.90275 | -118.49956 | 4644 ft | 222 kts | 55° |
| 2026-05-03 21:36 | 45.91130 | -118.48102 | 4265 ft | 222 kts | 55° |
| 2026-05-03 21:36 | 45.92088 | -118.46347 | 3813 ft | 225 kts | 40° |
| 2026-05-03 21:37 | 45.93332 | -118.45079 | 3855 ft | 213 kts | 33° |
| 2026-05-03 21:37 | 45.94542 | -118.43850 | 3890 ft | 213 kts | 34° |
| 2026-05-03 21:37 | 45.95744 | -118.42583 | 3911 ft | 221 kts | 35° |
| 2026-05-03 21:37 | 45.96963 | -118.41291 | 3894 ft | 208 kts | 35° |
| 2026-05-03 21:38 | 45.98086 | -118.40119 | 3653 ft | 189 kts | 35° |
| 2026-05-03 21:38 | 45.99090 | -118.39074 | 3431 ft | 167 kts | 34° |
| 2026-05-03 21:38 | 45.99952 | -118.38173 | 3167 ft | 143 kts | 33° |
| 2026-05-03 21:38 | 46.00709 | -118.37386 | 2973 ft | 129 kts | 34° |
| 2026-05-03 21:39 | 46.01419 | -118.36629 | 2845 ft | 124 kts | 34° |
| 2026-05-03 21:39 | 46.02132 | -118.35884 | 2778 ft | 133 kts | 35° |
| 2026-05-03 21:39 | 46.02896 | -118.35098 | 2482 ft | 135 kts | 33° |
| 2026-05-03 21:39 | 46.03609 | -118.34343 | 2424 ft | 122 kts | 36° |
| 2026-05-03 21:40 | 46.04322 | -118.33586 | 2189 ft | 129 kts | 35° |
| 2026-05-03 21:40 | 46.05038 | -118.32833 | 2041 ft | 126 kts | 34° |
| 2026-05-03 21:40 | 46.05752 | -118.32088 | 1860 ft | 128 kts | 34° |
| 2026-05-03 21:40 | 46.06465 | -118.31346 | 1682 ft | 124 kts | 33° |
| 2026-05-03 21:41 | 46.07175 | -118.30588 | 1507 ft | 129 kts | 35° |
| 2026-05-03 21:41 | 46.07913 | -118.29811 | 1355 ft | 134 kts | 33° |
| 2026-05-03 21:41 | 46.08662 | -118.29028 | 1177 ft | 128 kts | 33° |
| 2026-05-03 21:41 | 46.09258 | -118.28410 | 1177 ft | 74 kts | 36° |
| 2026-05-03 21:42 | 46.09478 | -118.28178 | 1187 ft | 22 kts | 36° |
| 2026-05-03 21:42 | 46.09532 | -118.28099 | 1189 ft | 1 kts | 143° |
| 2026-05-03 21:42 | 46.09501 | -118.28076 | 1188 ft | 7 kts | 143° |
| 2026-05-03 21:42 | 46.09475 | -118.28032 | 1188 ft | 4 kts | 127° |
| 2026-05-03 21:43 | 46.09456 | -118.27995 | 1188 ft | 6 kts | 123° |
| 2026-05-03 21:43 | 46.09448 | -118.27938 | 1188 ft | 5 kts | 95° |
| 2026-05-03 21:43 | 46.09429 | -118.27880 | 1187 ft | 8 kts | 131° |
| 2026-05-03 21:43 | 46.09399 | -118.27830 | 1187 ft | 5 kts | 130° |
| 2026-05-03 21:44 | 46.09387 | -118.27801 | 1187 ft | 0 kts | 83° |